createdAt,value
2018-09-14T00:01:18.431Z,3.73
2018-09-14T00:03:45.845Z,4.47
2018-09-14T00:06:13.298Z,3.60
2018-09-14T00:08:40.731Z,4.10
2018-09-14T00:11:08.219Z,3.90
2018-09-14T00:13:35.632Z,3.37
2018-09-14T00:16:03.045Z,4.07
2018-09-14T00:18:30.458Z,4.63
2018-09-14T00:20:57.894Z,4.17
2018-09-14T00:23:25.293Z,6.37
2018-09-14T00:25:52.717Z,5.17
2018-09-14T00:28:20.164Z,4.63
2018-09-14T00:30:47.637Z,6.10
2018-09-14T00:33:15.063Z,6.80
2018-09-14T00:35:42.684Z,7.83
2018-09-14T00:38:10.162Z,7.23
2018-09-14T00:40:37.553Z,7.90
2018-09-14T00:43:05.302Z,8.03
2018-09-14T00:45:32.775Z,7.97
2018-09-14T00:48:00.170Z,7.93
2018-09-14T00:50:27.617Z,7.23
2018-09-14T00:52:55.080Z,10.17
2018-09-14T00:55:22.493Z,8.40
2018-09-14T00:57:49.929Z,9.57
2018-09-14T01:00:17.319Z,11.10
2018-09-14T01:02:44.721Z,10.17
2018-09-14T01:05:12.127Z,10.03
2018-09-14T01:07:39.539Z,10.40
2018-09-14T01:10:07.011Z,10.10
2018-09-14T01:12:34.446Z,10.17
2018-09-14T01:15:01.868Z,11.80
2018-09-14T01:17:29.270Z,10.33
2018-09-14T01:19:56.683Z,11.70
2018-09-14T01:22:24.090Z,12.10
2018-09-14T01:24:51.542Z,11.70
2018-09-14T01:27:19.897Z,11.00
2018-09-14T01:29:47.369Z,9.83
2018-09-14T01:32:14.800Z,10.37
2018-09-14T01:34:42.198Z,9.80
2018-09-14T01:37:09.592Z,10.10
2018-09-14T01:39:37.026Z,9.97
2018-09-14T01:42:04.446Z,9.80
2018-09-14T01:44:31.855Z,9.30
2018-09-14T01:46:59.269Z,9.17
2018-09-14T01:49:26.681Z,9.70
2018-09-14T01:51:54.080Z,9.70
2018-09-14T01:54:21.498Z,8.57
2018-09-14T01:56:48.916Z,8.63
2018-09-14T01:59:16.333Z,8.80
2018-09-14T02:01:43.743Z,8.27
2018-09-14T02:04:11.152Z,8.43
2018-09-14T02:06:38.704Z,8.17
2018-09-14T02:09:07.477Z,9.10
2018-09-14T02:11:34.876Z,7.60
2018-09-14T02:14:02.242Z,8.30
2018-09-14T02:16:29.677Z,7.90
2018-09-14T02:18:57.063Z,7.80
2018-09-14T02:21:24.465Z,8.03
2018-09-14T02:23:51.886Z,7.83
2018-09-14T02:26:19.343Z,7.80
2018-09-14T02:28:46.768Z,7.67
2018-09-14T02:31:14.203Z,7.30
2018-09-14T02:33:41.609Z,8.30
2018-09-14T02:36:09.030Z,7.03
2018-09-14T02:38:36.428Z,7.57
2018-09-14T02:41:03.849Z,7.73
2018-09-14T02:43:31.287Z,7.30
2018-09-14T02:45:58.759Z,6.13
2018-09-14T02:48:26.257Z,6.20
2018-09-14T02:50:53.713Z,5.90
2018-09-14T02:53:21.137Z,7.97
2018-09-14T02:55:48.527Z,9.47
2018-09-14T02:58:15.993Z,6.87
2018-09-14T03:00:43.449Z,7.00
2018-09-14T03:03:10.992Z,6.17
2018-09-14T03:05:38.427Z,5.43
2018-09-14T03:08:05.963Z,6.17
2018-09-14T03:10:33.351Z,5.90
2018-09-14T03:13:00.804Z,5.53
2018-09-14T03:15:28.197Z,5.13
2018-09-14T03:17:55.629Z,4.90
2018-09-14T03:20:23.019Z,4.70
2018-09-14T03:22:50.422Z,4.47
2018-09-14T03:25:17.816Z,4.40
2018-09-14T03:27:45.225Z,4.27
2018-09-14T03:30:12.611Z,4.57
2018-09-14T03:32:40.041Z,4.40
2018-09-14T03:35:07.526Z,4.97
2018-09-14T03:37:34.930Z,5.20
2018-09-14T03:40:02.412Z,6.03
2018-09-14T03:42:29.908Z,5.23
2018-09-14T03:44:57.290Z,4.97
2018-09-14T03:47:24.708Z,5.30
2018-09-14T03:49:52.126Z,5.63
2018-09-14T03:52:19.558Z,5.60
2018-09-14T03:54:46.980Z,6.03
2018-09-14T03:57:14.392Z,5.50
2018-09-14T03:59:41.774Z,5.13
2018-09-14T04:02:09.238Z,5.30
2018-09-14T04:04:36.827Z,5.63
2018-09-14T04:07:04.262Z,4.93
2018-09-14T04:09:32.570Z,6.13
2018-09-14T04:11:59.991Z,5.77
2018-09-14T04:14:27.410Z,5.70
2018-09-14T04:16:54.932Z,5.67
2018-09-14T04:19:22.379Z,5.97
2018-09-14T04:21:49.914Z,5.73
2018-09-14T04:24:17.387Z,5.43
2018-09-14T04:26:44.790Z,5.57
2018-09-14T04:29:12.230Z,5.60
2018-09-14T04:31:39.627Z,5.73
2018-09-14T04:34:07.015Z,5.57
2018-09-14T04:36:34.409Z,6.00
2018-09-14T04:39:01.861Z,5.77
2018-09-14T04:41:29.284Z,5.40
2018-09-14T04:43:56.703Z,6.37
2018-09-14T04:46:24.124Z,5.10
2018-09-14T04:48:51.565Z,5.40
2018-09-14T04:51:19.082Z,5.50
2018-09-14T04:53:46.488Z,5.80
2018-09-14T04:56:13.983Z,5.30
2018-09-14T04:58:41.388Z,5.83
2018-09-14T05:01:08.959Z,5.73
2018-09-14T05:03:36.388Z,6.13
2018-09-14T05:06:03.817Z,6.20
2018-09-14T05:08:31.301Z,5.60
2018-09-14T05:10:58.802Z,5.90
2018-09-14T05:13:26.254Z,5.57
2018-09-14T05:15:53.731Z,5.90
2018-09-14T05:18:21.255Z,5.63
2018-09-14T05:20:48.795Z,6.60
2018-09-14T05:23:16.234Z,5.60
2018-09-14T05:25:43.664Z,5.40
2018-09-14T05:28:11.105Z,5.97
2018-09-14T05:30:38.510Z,5.87
2018-09-14T05:33:06.274Z,5.73
2018-09-14T05:35:33.722Z,6.13
2018-09-14T05:38:01.740Z,6.23
2018-09-14T05:40:29.182Z,6.47
2018-09-14T05:42:56.626Z,6.13
2018-09-14T05:45:24.034Z,6.27
2018-09-14T05:47:51.502Z,5.87
2018-09-14T05:50:18.988Z,6.10
2018-09-14T05:52:46.450Z,5.80
2018-09-14T05:55:13.898Z,5.93
2018-09-14T05:57:41.345Z,5.90
2018-09-14T06:00:08.815Z,5.67
2018-09-14T06:02:36.322Z,5.77
2018-09-14T06:05:04.942Z,5.00
2018-09-14T06:07:32.456Z,5.60
2018-09-14T06:09:59.926Z,5.57
2018-09-14T06:12:27.366Z,6.00
2018-09-14T06:14:54.832Z,6.50
2018-09-14T06:17:22.276Z,5.83
2018-09-14T06:19:49.740Z,6.07
2018-09-14T06:22:17.178Z,5.90
2018-09-14T06:24:44.638Z,5.43
2018-09-14T06:27:12.106Z,6.97
2018-09-14T06:29:39.592Z,5.77
2018-09-14T06:32:07.028Z,5.80
2018-09-14T06:34:34.504Z,5.30
2018-09-14T06:37:01.914Z,5.87
2018-09-14T06:39:29.327Z,5.70
2018-09-14T06:41:56.764Z,6.73
2018-09-14T06:44:24.205Z,5.77
2018-09-14T06:46:51.623Z,6.40
2018-09-14T06:49:19.109Z,5.73
2018-09-14T06:51:46.519Z,5.53
2018-09-14T06:54:14.042Z,5.27
2018-09-14T06:56:41.509Z,5.90
2018-09-14T06:59:08.927Z,5.80
2018-09-14T07:01:36.349Z,6.40
2018-09-14T07:04:03.771Z,5.47
2018-09-14T07:06:31.285Z,4.83
2018-09-14T07:08:58.677Z,5.50
2018-09-14T07:11:26.141Z,5.43
2018-09-14T07:13:53.605Z,5.40
2018-09-14T07:16:21.064Z,4.73
2018-09-14T07:18:48.496Z,5.77
2018-09-14T07:21:16.173Z,6.13
2018-09-14T07:23:43.602Z,5.93
2018-09-14T07:26:11.046Z,4.70
2018-09-14T07:28:38.496Z,5.30
2018-09-14T07:31:06.211Z,4.70
2018-09-14T07:33:33.619Z,4.90
2018-09-14T07:36:01.091Z,5.20
2018-09-14T07:38:28.516Z,5.17
2018-09-14T07:40:55.936Z,4.90
2018-09-14T07:43:23.366Z,5.27
2018-09-14T07:45:51.034Z,5.97
2018-09-14T07:48:18.480Z,5.00
2018-09-14T07:50:45.930Z,4.77
2018-09-14T07:53:13.369Z,4.97
2018-09-14T07:55:40.795Z,4.50
2018-09-14T07:58:08.254Z,4.30
2018-09-14T08:00:35.725Z,4.43
2018-09-14T08:03:03.192Z,4.67
2018-09-14T08:05:30.614Z,5.07
2018-09-14T08:07:58.089Z,4.70
2018-09-14T08:10:25.510Z,5.30
2018-09-14T08:12:53.322Z,5.20
2018-09-14T08:15:20.726Z,5.20
2018-09-14T08:17:48.174Z,4.17
2018-09-14T08:20:15.673Z,4.13
2018-09-14T08:22:43.002Z,4.70
2018-09-14T08:25:10.436Z,4.90
2018-09-14T08:27:38.320Z,5.40
2018-09-14T08:30:05.817Z,5.43
2018-09-14T08:32:33.293Z,5.57
2018-09-14T08:35:00.701Z,5.13
2018-09-14T08:37:28.136Z,4.83
2018-09-14T08:39:55.571Z,5.57
2018-09-14T08:42:23.280Z,6.33
2018-09-14T08:44:50.730Z,5.03
2018-09-14T08:47:18.154Z,5.00
2018-09-14T08:49:45.589Z,4.07
2018-09-14T08:52:13.410Z,4.10
2018-09-14T08:54:40.990Z,4.00
2018-09-14T08:57:08.414Z,3.90
2018-09-14T08:59:35.837Z,4.33
2018-09-14T09:02:03.352Z,4.50
2018-09-14T09:04:30.767Z,3.47
2018-09-14T09:06:58.174Z,3.43
2018-09-14T09:09:25.822Z,3.93
2018-09-14T09:11:53.238Z,4.33
2018-09-14T09:14:20.670Z,4.80
2018-09-14T09:16:48.094Z,3.77
2018-09-14T09:19:15.557Z,3.70
2018-09-14T09:21:43.100Z,5.10
2018-09-14T09:24:10.515Z,3.47
2018-09-14T09:26:37.988Z,4.07
2018-09-14T09:29:05.709Z,4.03
2018-09-14T09:31:33.115Z,4.83
2018-09-14T09:34:00.546Z,4.30
2018-09-14T09:36:27.998Z,3.90
2018-09-14T09:38:55.446Z,4.27
2018-09-14T09:41:22.908Z,4.07
2018-09-14T09:43:50.375Z,3.97
2018-09-14T09:46:18.009Z,4.17
2018-09-14T09:48:45.630Z,3.57
2018-09-14T09:51:13.138Z,7.57
2018-09-14T09:53:40.694Z,6.13
2018-09-14T09:56:08.144Z,3.97
2018-09-14T09:58:35.613Z,3.60
2018-09-14T10:01:08.799Z,4.43
2018-09-14T10:03:41.849Z,3.60
2018-09-14T10:06:14.787Z,3.97
2018-09-14T10:08:42.274Z,4.37
2018-09-14T10:11:09.732Z,4.10
2018-09-14T10:13:37.203Z,3.73
2018-09-14T10:16:04.634Z,3.57
2018-09-14T10:18:32.135Z,3.50
2018-09-14T10:20:59.628Z,3.90
2018-09-14T10:23:27.018Z,4.37
2018-09-14T10:25:54.454Z,3.83
2018-09-14T10:28:21.876Z,3.97
2018-09-14T10:30:49.355Z,4.00
2018-09-14T10:33:16.853Z,3.60
2018-09-14T10:35:44.304Z,4.53
2018-09-14T10:38:11.769Z,3.60
2018-09-14T10:40:39.193Z,4.00
2018-09-14T10:43:06.658Z,4.07
2018-09-14T10:45:35.112Z,3.53
2018-09-14T10:48:02.589Z,4.43
2018-09-14T10:50:30.060Z,4.33
2018-09-14T10:52:58.199Z,4.43
2018-09-14T10:55:25.677Z,4.10
2018-09-14T10:57:53.114Z,4.10
2018-09-14T11:00:21.205Z,4.27
2018-09-14T11:02:48.693Z,4.37
2018-09-14T11:05:16.270Z,4.33
2018-09-14T11:07:43.756Z,4.67
2018-09-14T11:10:11.259Z,4.17
2018-09-14T11:12:38.779Z,3.90
2018-09-14T11:15:06.305Z,4.53
2018-09-14T11:17:33.805Z,3.47
2018-09-14T11:20:01.671Z,4.60
2018-09-14T11:22:29.156Z,4.90
2018-09-14T11:24:56.656Z,5.43
2018-09-14T11:27:24.046Z,4.23
2018-09-14T11:29:51.518Z,4.33
2018-09-14T11:32:18.992Z,4.47
2018-09-14T11:34:46.455Z,6.53
2018-09-14T11:37:13.883Z,6.03
2018-09-14T11:39:41.375Z,5.37
2018-09-14T11:42:08.805Z,5.50
2018-09-14T11:44:36.301Z,4.70
2018-09-14T11:47:03.755Z,4.97
2018-09-14T11:49:31.256Z,6.07
2018-09-14T11:51:58.655Z,5.77
2018-09-14T11:54:26.194Z,5.60
2018-09-14T11:56:53.547Z,5.37
2018-09-14T11:59:21.008Z,5.37
2018-09-14T12:01:48.525Z,5.37
2018-09-14T12:04:16.070Z,5.67
2018-09-14T12:06:43.669Z,5.60
2018-09-14T12:09:11.991Z,4.77
2018-09-14T12:11:40.169Z,5.27
2018-09-14T12:14:08.088Z,5.33
2018-09-14T12:16:35.515Z,4.53
2018-09-14T12:19:03.017Z,4.77
2018-09-14T12:21:30.476Z,4.70
2018-09-14T12:23:57.896Z,5.67
2018-09-14T12:26:25.335Z,5.23
2018-09-14T12:28:52.847Z,5.77
2018-09-14T12:31:20.377Z,5.70
2018-09-14T12:33:47.891Z,5.20
2018-09-14T12:36:15.648Z,4.97
2018-09-14T12:38:43.083Z,4.57
2018-09-14T12:41:10.765Z,5.03
2018-09-14T12:43:38.186Z,4.90
2018-09-14T12:46:05.675Z,5.23
2018-09-14T12:48:33.117Z,5.00
2018-09-14T12:51:00.533Z,5.57
2018-09-14T12:53:27.956Z,5.53
2018-09-14T12:55:55.417Z,5.23
2018-09-14T12:58:22.832Z,5.30
2018-09-14T13:00:50.297Z,5.57
2018-09-14T13:03:17.720Z,5.77
2018-09-14T13:05:45.215Z,5.97
2018-09-14T13:08:12.673Z,4.97
2018-09-14T13:10:40.167Z,5.17
2018-09-14T13:13:07.676Z,5.07
2018-09-14T13:15:35.161Z,4.77
2018-09-14T13:18:02.780Z,4.73
2018-09-14T13:20:30.219Z,4.43
2018-09-14T13:22:57.679Z,5.70
2018-09-14T13:25:25.126Z,6.23
2018-09-14T13:27:52.622Z,5.33
2018-09-14T13:30:20.083Z,4.17
2018-09-14T13:32:50.876Z,4.00
2018-09-14T13:35:18.988Z,4.17
2018-09-14T13:37:46.644Z,4.03
2018-09-14T13:40:14.116Z,3.90
2018-09-14T13:42:41.600Z,4.00
2018-09-14T13:45:09.082Z,6.43
2018-09-14T13:47:36.608Z,5.50
2018-09-14T13:50:04.061Z,4.67
2018-09-14T13:52:31.509Z,4.40
2018-09-14T13:54:58.984Z,5.00
2018-09-14T13:57:26.631Z,4.57
2018-09-14T13:59:54.080Z,3.70
2018-09-14T14:02:21.507Z,4.03
2018-09-14T14:04:48.926Z,4.33
2018-09-14T14:07:16.362Z,3.87
2018-09-14T14:09:43.849Z,4.33
2018-09-14T14:12:11.280Z,6.50
2018-09-14T14:14:38.719Z,4.87
2018-09-14T14:17:06.394Z,4.70
2018-09-14T14:19:33.811Z,4.67
2018-09-14T14:22:01.262Z,4.50
2018-09-14T14:24:28.707Z,4.17
2018-09-14T14:26:56.165Z,5.63
2018-09-14T14:29:23.633Z,4.30
2018-09-14T14:31:51.122Z,7.20
2018-09-14T14:34:18.542Z,4.63
2018-09-14T14:36:45.990Z,3.97
2018-09-14T14:39:13.456Z,4.13
2018-09-14T14:41:40.935Z,4.57
2018-09-14T14:44:08.421Z,4.23
2018-09-14T14:46:35.854Z,4.50
2018-09-14T14:49:03.462Z,5.37
2018-09-14T14:51:30.898Z,4.40
2018-09-14T14:53:58.341Z,4.60
2018-09-14T14:56:25.771Z,4.53
2018-09-14T14:58:53.265Z,4.70
2018-09-14T15:01:20.711Z,3.93
2018-09-14T15:03:48.150Z,5.33
2018-09-14T15:06:15.597Z,4.20
2018-09-14T15:08:43.073Z,4.77
2018-09-14T15:11:10.581Z,13.63
2018-09-14T15:13:38.048Z,10.07
2018-09-14T15:16:05.454Z,7.90
2018-09-14T15:18:32.870Z,6.77
2018-09-14T15:21:00.277Z,4.97
2018-09-14T15:23:27.713Z,8.40
2018-09-14T15:25:55.136Z,6.20
2018-09-14T15:28:22.579Z,5.93
2018-09-14T15:30:50.070Z,5.00
2018-09-14T15:33:17.587Z,4.40
2018-09-14T15:35:45.062Z,4.50
2018-09-14T15:38:12.529Z,5.60
2018-09-14T15:40:39.962Z,4.53
2018-09-14T15:43:07.366Z,4.10
2018-09-14T15:45:35.045Z,5.40
2018-09-14T15:48:02.487Z,4.63
2018-09-14T15:50:29.950Z,4.17
2018-09-14T15:52:57.748Z,5.60
2018-09-14T15:55:25.164Z,7.67
2018-09-14T15:57:52.649Z,6.40
2018-09-14T16:00:21.782Z,6.17
2018-09-14T16:02:50.500Z,5.67
2018-09-14T16:05:17.926Z,6.10
2018-09-14T16:07:45.355Z,6.23
2018-09-14T16:10:12.826Z,4.97
2018-09-14T16:12:40.255Z,3.80
2018-09-14T16:15:07.700Z,4.00
2018-09-14T16:17:35.150Z,4.20
2018-09-14T16:20:02.614Z,3.53
2018-09-14T16:22:30.057Z,3.37
2018-09-14T16:24:57.507Z,3.77
2018-09-14T16:27:24.924Z,3.97
2018-09-14T16:29:52.366Z,4.37
2018-09-14T16:32:19.774Z,4.70
2018-09-14T16:34:47.242Z,3.67
2018-09-14T16:37:14.735Z,3.57
2018-09-14T16:39:42.104Z,3.30
2018-09-14T16:42:09.536Z,4.10
2018-09-14T16:44:38.896Z,4.00
2018-09-14T16:47:06.478Z,3.90
2018-09-14T16:49:33.916Z,3.43
2018-09-14T16:52:01.357Z,4.50
2018-09-14T16:54:28.771Z,3.93
2018-09-14T16:56:56.420Z,5.40
2018-09-14T16:59:23.897Z,4.27
2018-09-14T17:01:51.317Z,3.80
2018-09-14T17:04:18.766Z,4.37
2018-09-14T17:06:46.466Z,3.60
2018-09-14T17:09:13.902Z,3.73
2018-09-14T17:11:41.486Z,4.80
2018-09-14T17:14:08.926Z,4.03
2018-09-14T17:16:36.860Z,4.30
2018-09-14T17:19:04.425Z,4.23
2018-09-14T17:21:31.888Z,4.13
2018-09-14T17:23:59.387Z,4.27
2018-09-14T17:26:26.846Z,4.20
2018-09-14T17:28:54.474Z,19.80
2018-09-14T17:31:21.888Z,26.83
2018-09-14T17:33:49.312Z,9.50
2018-09-14T17:36:16.755Z,6.03
2018-09-14T17:38:44.374Z,8.47
2018-09-14T17:41:11.796Z,6.10
2018-09-14T17:43:39.236Z,7.57
2018-09-14T17:46:06.679Z,5.67
2018-09-14T17:48:34.135Z,5.10
2018-09-14T17:51:01.585Z,5.23
2018-09-14T17:53:29.048Z,5.10
2018-09-14T17:55:56.465Z,6.30
2018-09-14T17:58:23.911Z,5.17
2018-09-14T18:00:51.425Z,5.20
2018-09-14T18:03:18.922Z,4.57
2018-09-14T18:05:46.322Z,4.90
2018-09-14T18:08:13.777Z,5.40
2018-09-14T18:10:41.263Z,5.47
2018-09-14T18:13:08.698Z,5.63
2018-09-14T18:15:36.152Z,5.37
2018-09-14T18:18:03.608Z,5.50
2018-09-14T18:20:31.051Z,6.90
2018-09-14T18:22:58.540Z,5.50
2018-09-14T18:25:26.027Z,5.17
2018-09-14T18:27:53.551Z,5.13
2018-09-14T18:30:21.142Z,7.60
2018-09-14T18:32:48.737Z,6.37
2018-09-14T18:35:16.398Z,5.87
2018-09-14T18:37:43.879Z,6.07
2018-09-14T18:40:11.342Z,6.50
2018-09-14T18:42:38.960Z,6.87
2018-09-14T18:45:06.457Z,7.40
2018-09-14T18:47:33.950Z,7.20
2018-09-14T18:50:01.793Z,7.20
2018-09-14T18:52:29.292Z,6.77
2018-09-14T18:54:57.025Z,6.60
2018-09-14T18:57:24.527Z,7.23
2018-09-14T18:59:51.924Z,7.70
2018-09-14T19:02:19.401Z,6.83
2018-09-14T19:04:46.852Z,6.83
2018-09-14T19:07:14.280Z,6.70
2018-09-14T19:09:42.036Z,7.33
2018-09-14T19:12:09.820Z,7.03
2018-09-14T19:14:37.604Z,6.53
2018-09-14T19:17:05.413Z,11.60
2018-09-14T19:19:33.168Z,8.60
2018-09-14T19:22:00.664Z,8.47
2018-09-14T19:24:28.442Z,6.83
2018-09-14T19:26:55.947Z,6.97
2018-09-14T19:29:23.691Z,6.90
2018-09-14T19:31:51.526Z,6.93
2018-09-14T19:34:19.022Z,7.43
2018-09-14T19:36:46.738Z,7.27
2018-09-14T19:39:14.188Z,7.03
2018-09-14T19:41:41.660Z,6.20
2018-09-14T19:44:09.537Z,7.30
2018-09-14T19:46:37.239Z,7.37
2018-09-14T19:49:04.786Z,6.70
2018-09-14T19:51:32.598Z,6.83
2018-09-14T19:54:00.353Z,6.50
2018-09-14T19:56:28.109Z,6.73
2018-09-14T19:58:55.604Z,6.60
2018-09-14T20:01:23.255Z,7.07
2018-09-14T20:03:50.966Z,13.00
2018-09-14T20:06:18.584Z,7.50
2018-09-14T20:08:45.995Z,6.87
2018-09-14T20:11:13.633Z,6.10
2018-09-14T20:13:41.235Z,6.40
2018-09-14T20:16:08.775Z,6.40
2018-09-14T20:18:36.328Z,7.70
2018-09-14T20:21:03.757Z,6.97
2018-09-14T20:23:31.185Z,6.77
2018-09-14T20:25:58.595Z,6.43
2018-09-14T20:28:26.058Z,6.57
2018-09-14T20:30:53.515Z,7.23
2018-09-14T20:33:20.984Z,6.57
2018-09-14T20:35:48.462Z,7.27
2018-09-14T20:38:15.959Z,6.57
2018-09-14T20:40:43.344Z,7.03
2018-09-14T20:43:10.853Z,7.77
2018-09-14T20:45:38.269Z,7.60
2018-09-14T20:48:05.778Z,7.53
2018-09-14T20:50:33.162Z,7.80
2018-09-14T20:53:00.620Z,7.00
2018-09-14T20:55:28.084Z,6.90
2018-09-14T20:57:55.514Z,7.90
2018-09-14T21:00:24.647Z,7.60
2018-09-14T21:02:52.127Z,6.60
2018-09-14T21:05:19.697Z,7.03
2018-09-14T21:07:47.126Z,6.80
2018-09-14T21:10:14.577Z,7.20
2018-09-14T21:12:41.997Z,6.90
2018-09-14T21:15:09.461Z,7.37
2018-09-14T21:17:36.883Z,6.33
2018-09-14T21:20:04.441Z,5.93
2018-09-14T21:22:31.874Z,7.40
2018-09-14T21:24:59.304Z,6.93
2018-09-14T21:27:26.740Z,6.77
2018-09-14T21:29:54.253Z,6.97
2018-09-14T21:32:21.673Z,7.57
2018-09-14T21:34:49.143Z,7.00
2018-09-14T21:37:16.576Z,6.90
2018-09-14T21:39:44.022Z,6.57
2018-09-14T21:42:11.503Z,7.73
2018-09-14T21:44:38.972Z,7.50
2018-09-14T21:47:06.544Z,7.40
2018-09-14T21:49:34.092Z,7.50
2018-09-14T21:52:01.549Z,7.17
2018-09-14T21:55:08.621Z,6.60
2018-09-14T21:57:51.389Z,6.73
2018-09-14T22:00:49.807Z,6.93
2018-09-14T22:03:26.693Z,6.77
2018-09-14T22:06:19.750Z,7.20
2018-09-14T22:09:47.235Z,7.70
2018-09-14T22:12:39.055Z,6.93
2018-09-14T22:23:53.796Z,6.80
2018-09-14T22:29:41.486Z,6.43
2018-09-14T22:32:34.878Z,6.10
2018-09-14T22:38:14.227Z,5.97
2018-09-14T22:43:57.398Z,6.20
2018-09-14T22:49:21.063Z,6.07
2018-09-14T22:51:48.550Z,6.97
2018-09-14T22:54:15.966Z,6.70
2018-09-14T22:56:43.420Z,5.20
2018-09-14T22:59:10.844Z,6.20
2018-09-14T23:01:38.311Z,5.47
2018-09-14T23:04:05.726Z,6.07
2018-09-14T23:06:33.144Z,5.77
2018-09-14T23:09:00.548Z,6.20
2018-09-14T23:11:28.019Z,7.47
2018-09-14T23:13:55.453Z,5.83
2018-09-14T23:16:22.871Z,6.53
2018-09-14T23:18:50.321Z,5.50
2018-09-14T23:21:17.717Z,6.30
2018-09-14T23:23:45.190Z,5.77
2018-09-14T23:26:15.692Z,5.63
2018-09-14T23:28:43.077Z,5.57
2018-09-14T23:31:10.511Z,6.27
2018-09-14T23:33:37.950Z,6.03
2018-09-14T23:36:05.379Z,7.13
2018-09-14T23:38:32.779Z,6.47
2018-09-14T23:41:00.187Z,6.43
2018-09-14T23:43:27.611Z,6.63
2018-09-14T23:45:55.034Z,6.00
2018-09-14T23:48:22.457Z,6.10
2018-09-14T23:50:49.946Z,5.60
2018-09-14T23:53:17.372Z,5.17
2018-09-14T23:55:44.846Z,6.10
2018-09-14T23:58:12.250Z,5.23
